Time;durP1;ratioP1;P1;durP2;ratioP2;P2;SDS_P1;SDS_P2;PMS_P1;PMS_P2;Temp;Humidity;BMP_temperature;BMP_pressure;BME280_temperature;BME280_humidity;BME280_pressure;Samples;Min_cycle;Max_cycle;Signal;HPM_P1;HPM_P2
2023/07/10 00:00:20;;;;;;;7.57;3.95;;;;;;;21.88;60.39;100069.00;4317200;33;20501;-91
2023/07/10 00:02:46;;;;;;;5.30;3.45;;;;;;;21.73;60.38;100065.66;4307530;33;20103;-90
2023/07/10 00:05:15;;;;;;;7.20;3.85;;;;;;;21.85;60.38;100068.38;4316999;33;20138;-90
2023/07/10 00:07:41;;;;;;;5.65;3.83;;;;;;;21.77;60.38;100063.66;4294241;33;20108;-89
2023/07/10 00:10:15;;;;;;;5.15;3.47;;;;;;;21.76;60.38;100064.59;4305111;33;20429;-91
2023/07/10 00:12:41;;;;;;;5.65;3.62;;;;;;;21.83;60.38;100060.56;4317714;33;20103;-89
2023/07/10 00:15:18;;;;;;;5.75;3.65;;;;;;;21.81;60.38;100069.56;4319979;33;20113;-90
2023/07/10 00:17:45;;;;;;;4.80;3.40;;;;;;;21.67;60.37;100068.78;4327608;33;20080;-90
2023/07/10 00:20:18;;;;;;;5.15;3.42;;;;;;;21.71;60.38;100067.59;4320810;33;20159;-90
2023/07/10 00:22:44;;;;;;;7.07;3.70;;;;;;;21.66;60.37;100067.09;4331082;33;20134;-89
2023/07/10 00:25:09;;;;;;;8.38;3.60;;;;;;;21.64;60.38;100065.50;4331365;33;20080;-90
2023/07/10 00:27:35;;;;;;;6.93;3.95;;;;;;;21.54;60.36;100073.28;4310709;33;20084;-90
2023/07/10 00:30:00;;;;;;;4.62;3.15;;;;;;;21.63;60.38;100064.66;4295334;33;20163;-90
2023/07/10 00:32:26;;;;;;;5.37;3.08;;;;;;;21.48;60.37;100059.62;4307107;33;20493;-91
2023/07/10 00:34:51;;;;;;;5.85;3.75;;;;;;;21.59;60.36;100065.84;4319280;33;20143;-90
2023/07/10 00:37:17;;;;;;;6.57;3.50;;;;;;;21.58;60.37;100071.25;4331758;33;20108;-90
2023/07/10 00:39:43;;;;;;;5.37;3.40;;;;;;;21.38;60.35;100067.37;4307149;33;20107;-89
2023/07/10 00:42:15;;;;;;;6.43;3.50;;;;;;;21.55;60.37;100067.03;4328083;33;20099;-91
2023/07/10 00:44:43;;;;;;;5.70;3.20;;;;;;;21.77;60.38;100061.00;4307196;33;20118;-90
2023/07/10 00:47:19;;;;;;;5.07;3.47;;;;;;;21.73;60.37;100063.00;4318765;33;20075;-89
2023/07/10 00:50:06;;;;;;;5.60;3.30;;;;;;;21.53;60.36;100066.28;4313918;33;20095;-89
2023/07/10 00:52:35;;;;;;;6.20;3.55;;;;;;;21.56;60.37;100068.72;4327189;33;20121;-91
2023/07/10 00:55:01;;;;;;;6.20;3.47;;;;;;;21.43;60.36;100063.44;4296090;33;20117;-91
2023/07/10 00:57:33;;;;;;;6.47;3.67;;;;;;;21.30;60.35;100064.44;4295674;33;20092;-90
2023/07/10 01:00:00;;;;;;;7.78;3.72;;;;;;;21.28;60.35;100066.34;4308769;33;20104;-92
2023/07/10 01:02:25;;;;;;;5.00;3.40;;;;;;;21.33;60.36;100066.88;4319462;33;20786;-90
2023/07/10 01:05:00;;;;;;;7.97;3.72;;;;;;;21.44;60.36;100059.84;4318517;33;20461;-90
2023/07/10 01:07:26;;;;;;;6.78;3.22;;;;;;;21.56;60.37;100066.06;4307348;33;20088;-91
2023/07/10 01:09:56;;;;;;;10.05;3.53;;;;;;;21.64;60.38;100065.50;4307327;33;20104;-91
2023/07/10 01:12:22;;;;;;;4.90;3.22;;;;;;;21.59;60.36;100060.53;4312269;33;20104;-91
2023/07/10 01:14:47;;;;;;;5.68;2.95;;;;;;;21.69;60.37;100063.34;4319207;33;20158;-90
2023/07/10 01:17:13;;;;;;;5.95;3.60;;;;;;;21.87;60.38;100066.47;4304945;33;20354;-91
2023/07/10 01:19:38;;;;;;;4.72;3.20;;;;;;;21.46;60.36;100062.38;4307372;33;20126;-90
2023/07/10 01:22:04;;;;;;;5.28;3.10;;;;;;;21.71;60.38;100058.78;4331640;33;20166;-90
2023/07/10 01:24:29;;;;;;;4.68;3.25;;;;;;;21.57;60.37;100057.16;4319435;33;20087;-91
2023/07/10 01:26:55;;;;;;;6.53;3.50;;;;;;;21.44;60.36;100062.50;4307245;33;20136;-90
2023/07/10 01:29:32;;;;;;;5.78;3.30;;;;;;;21.48;60.36;100055.16;4319310;33;20119;-90
2023/07/10 01:31:58;;;;;;;6.93;3.30;;;;;;;21.32;60.36;100057.25;4319334;33;20819;-90
2023/07/10 01:34:30;;;;;;;5.10;3.12;;;;;;;21.20;60.35;100061.56;4331312;33;20129;-90
2023/07/10 01:36:55;;;;;;;4.50;3.10;;;;;;;21.29;60.35;100060.09;4318971;33;20092;-90
2023/07/10 01:39:39;;;;;;;6.65;3.40;;;;;;;21.20;60.35;100066.00;4318994;33;20150;-90
2023/07/10 01:42:05;;;;;;;5.25;3.33;;;;;;;20.89;60.33;100067.31;4306870;33;20495;-90
2023/07/10 01:44:32;;;;;;;5.05;3.55;;;;;;;21.18;60.35;100066.12;4322562;33;20092;-88
2023/07/10 01:46:59;;;;;;;4.80;3.37;;;;;;;21.21;60.34;100060.59;4332046;33;20088;-90
2023/07/10 01:49:27;;;;;;;6.65;3.90;;;;;;;21.15;60.34;100069.00;4320202;33;20142;-89
2023/07/10 01:51:52;;;;;;;7.35;3.72;;;;;;;20.79;60.33;100061.81;4316007;33;20079;-90
2023/07/10 01:54:18;;;;;;;7.05;3.15;;;;;;;20.80;60.32;100058.22;4321540;33;20445;-90
2023/07/10 01:56:43;;;;;;;7.65;3.58;;;;;;;20.90;60.33;100048.69;4309591;33;20172;-89
2023/07/10 01:59:09;;;;;;;4.32;3.15;;;;;;;20.88;60.33;100050.59;4307278;33;20506;-90
2023/07/10 02:01:34;;;;;;;5.50;3.33;;;;;;;21.02;60.33;100055.75;4320311;33;20108;-89
2023/07/10 02:04:00;;;;;;;5.35;3.67;;;;;;;20.90;60.33;100054.00;4320563;33;20121;-90
2023/07/10 02:06:26;;;;;;;4.32;3.05;;;;;;;20.99;60.33;100052.47;4328813;33;20112;-89
2023/07/10 02:08:51;;;;;;;6.05;3.25;;;;;;;21.00;60.33;100062.12;4308455;33;20414;-89
2023/07/10 02:11:17;;;;;;;4.30;2.95;;;;;;;21.29;60.35;100055.62;4320168;33;22599;-90
2023/07/10 02:13:42;;;;;;;9.23;3.12;;;;;;;21.46;60.36;100051.78;4318042;33;20138;-89
2023/07/10 02:16:09;;;;;;;6.47;3.45;;;;;;;21.41;60.36;100053.91;4306965;33;20152;-89
2023/07/10 02:18:35;;;;;;;6.80;3.33;;;;;;;21.48;60.37;100049.03;4324326;33;20176;-89
2023/07/10 02:21:00;;;;;;;8.05;3.85;;;;;;;21.29;60.35;100054.78;4318039;33;20108;-90
2023/07/10 02:23:25;;;;;;;4.35;3.40;;;;;;;21.10;60.34;100056.09;4317753;33;20918;-88
2023/07/10 02:25:51;;;;;;;7.00;3.67;;;;;;;21.15;60.33;100059.25;4317955;33;20118;-90
2023/07/10 02:28:16;;;;;;;5.50;3.20;;;;;;;21.07;60.34;100047.53;4318077;33;20184;-89
2023/07/10 02:30:42;;;;;;;6.53;3.97;;;;;;;21.10;60.34;100053.44;4318195;33;20164;-88
2023/07/10 02:33:07;;;;;;;4.90;3.72;;;;;;;21.03;60.34;100059.25;4317921;33;20103;-89
2023/07/10 02:35:33;;;;;;;4.10;3.30;;;;;;;21.13;60.34;100052.38;4317983;33;20145;-89
2023/07/10 02:37:58;;;;;;;6.32;3.50;;;;;;;21.13;60.33;100049.72;4305741;33;20389;-89
2023/07/10 02:40:24;;;;;;;6.95;3.58;;;;;;;20.95;60.34;100053.66;4305566;33;20167;-89
2023/07/10 02:42:49;;;;;;;6.22;3.20;;;;;;;20.90;60.32;100063.72;4320204;33;20397;-89
2023/07/10 02:45:15;;;;;;;5.25;3.70;;;;;;;21.09;60.34;100061.50;4316585;33;20191;-89
2023/07/10 02:47:41;;;;;;;7.90;3.35;;;;;;;21.31;60.34;100047.59;4305655;33;20108;-89
2023/07/10 02:50:08;;;;;;;4.93;3.28;;;;;;;20.95;60.33;100054.50;4320125;33;20162;-89
2023/07/10 02:52:34;;;;;;;10.73;3.85;;;;;;;20.79;60.32;100052.06;4320248;33;20386;-90
2023/07/10 02:54:59;;;;;;;6.30;3.50;;;;;;;20.82;60.32;100046.59;4329890;33;20099;-90
2023/07/10 02:57:25;;;;;;;5.15;3.50;;;;;;;21.03;60.34;100046.87;4307933;33;20156;-90
2023/07/10 02:59:50;;;;;;;6.30;3.62;;;;;;;21.13;60.34;100052.38;4320120;33;20140;-89
2023/07/10 03:02:15;;;;;;;7.93;3.75;;;;;;;20.94;60.33;100054.63;4333386;33;21881;-89
2023/07/10 03:04:41;;;;;;;7.18;3.58;;;;;;;20.84;60.32;100049.97;4319788;33;21597;-90
2023/07/10 03:07:06;;;;;;;5.50;3.62;;;;;;;20.84;60.31;100043.84;4322891;33;21420;-89
2023/07/10 03:09:32;;;;;;;5.12;3.65;;;;;;;20.95;60.33;100041.28;4307994;33;20477;-90
2023/07/10 03:11:57;;;;;;;7.95;3.97;;;;;;;20.98;60.32;100041.06;4320291;33;20137;-90
2023/07/10 03:14:22;;;;;;;5.65;3.97;;;;;;;21.05;60.34;100042.31;4333511;33;25678;-89
2023/07/10 03:16:48;;;;;;;6.37;4.37;;;;;;;21.08;60.33;100039.47;4332789;33;30406;-89
2023/07/10 03:19:13;;;;;;;11.95;4.12;;;;;;;21.29;60.34;100046.84;4323498;33;20509;-90
2023/07/10 03:21:39;;;;;;;6.55;4.30;;;;;;;21.38;60.35;100040.91;4345641;33;20417;-90
2023/07/10 03:24:05;;;;;;;6.40;4.28;;;;;;;21.49;60.36;100043.59;4325043;33;20105;-88
2023/07/10 03:26:30;;;;;;;5.65;3.55;;;;;;;21.65;60.37;100044.19;4320338;33;20105;-89
2023/07/10 03:29:07;;;;;;;6.37;4.37;;;;;;;21.90;60.38;100039.72;4319646;33;24065;-88
2023/07/10 03:31:33;;;;;;;7.72;4.07;;;;;;;21.95;60.39;100043.72;4308026;33;20174;-89
2023/07/10 03:33:58;;;;;;;8.35;4.32;;;;;;;21.98;60.38;100040.00;4319995;33;20135;-89
2023/07/10 03:36:24;;;;;;;8.05;3.72;;;;;;;22.21;60.40;100039.16;4332553;33;20174;-89
2023/07/10 03:38:49;;;;;;;7.78;3.92;;;;;;;22.17;60.39;100037.69;4328645;33;20100;-89
2023/07/10 03:41:14;;;;;;;6.15;3.60;;;;;;;22.40;60.40;100035.09;4319377;33;22869;-89
2023/07/10 03:43:40;;;;;;;6.80;3.75;;;;;;;22.48;60.41;100032.72;4331179;33;32511;-89
2023/07/10 03:46:05;;;;;;;8.02;4.12;;;;;;;22.37;60.40;100026.44;4319353;33;26677;-89
2023/07/10 03:48:31;;;;;;;7.37;3.92;;;;;;;22.26;60.40;100030.87;4328159;33;20174;-86
2023/07/10 03:50:57;;;;;;;5.25;3.80;;;;;;;22.30;60.39;100024.38;4326856;33;21045;-90
2023/07/10 03:53:23;;;;;;;5.82;3.62;;;;;;;22.33;60.41;100022.31;4317895;33;20122;-90
2023/07/10 03:55:51;;;;;;;6.50;4.25;;;;;;;22.37;60.40;100022.94;4320117;33;20112;-88
2023/07/10 03:58:21;;;;;;;5.55;4.07;;;;;;;22.63;60.42;100031.53;4332056;33;20150;-89
2023/07/10 04:00:46;;;;;;;;;;;;;;;22.64;60.42;100022.59;4332609;33;20091;-90
2023/07/10 04:03:12;;;;;;;6.90;3.65;;;;;;;22.51;60.41;100027.19;4331762;33;20044;-89
2023/07/10 04:05:37;;;;;;;6.30;3.70;;;;;;;22.52;60.41;100032.38;4319140;33;25826;-89
2023/07/10 04:08:03;;;;;;;9.40;3.78;;;;;;;22.81;60.43;100019.53;4331809;33;20433;-89
2023/07/10 04:10:29;;;;;;;7.15;3.80;;;;;;;22.87;60.43;100018.19;4319817;33;20461;-89
2023/07/10 04:12:55;;;;;;;7.45;4.20;;;;;;;22.89;60.43;100026.87;4317678;33;20114;-88
2023/07/10 04:15:20;;;;;;;7.45;3.80;;;;;;;22.98;60.44;100017.34;4317332;33;20140;-88
2023/07/10 04:17:46;;;;;;;5.68;3.92;;;;;;;23.04;60.44;100019.53;4317223;33;20107;-88
2023/07/10 04:20:11;;;;;;;5.93;4.15;;;;;;;22.97;60.43;100027.13;4304931;33;20095;-90
2023/07/10 04:22:36;;;;;;;10.00;4.40;;;;;;;23.26;60.44;100025.66;4316703;33;20129;-89
2023/07/10 04:25:05;;;;;;;6.72;4.35;;;;;;;23.47;60.46;100019.56;4320061;33;20189;-89
2023/07/10 04:27:32;;;;;;;7.60;4.05;;;;;;;23.28;60.45;100023.72;4331806;33;20505;-89
2023/07/10 04:29:59;;;;;;;7.90;3.75;;;;;;;23.35;60.46;100028.53;4319592;33;20096;-89
2023/07/10 04:32:24;;;;;;;5.20;3.83;;;;;;;23.49;60.46;100023.78;4328159;33;20175;-89
2023/07/10 04:34:50;;;;;;;5.80;4.20;;;;;;;23.41;60.45;100023.56;4305189;33;20159;-88
2023/07/10 04:37:15;;;;;;;6.87;4.25;;;;;;;23.47;60.46;100020.41;4305249;33;20096;-88
2023/07/10 04:39:41;;;;;;;7.80;4.25;;;;;;;23.67;60.48;100020.66;4317848;33;20170;-89
2023/07/10 04:42:06;;;;;;;7.55;4.25;;;;;;;23.72;60.46;100019.28;4317867;33;20126;-90
2023/07/10 04:44:32;;;;;;;8.10;4.18;;;;;;;23.91;60.48;100017.78;4306267;33;20152;-89
2023/07/10 04:46:57;;;;;;;7.47;4.82;;;;;;;24.19;60.49;100009.16;4319285;33;20419;-89
2023/07/10 04:49:23;;;;;;;9.32;4.53;;;;;;;24.29;60.50;100018.06;4331162;33;20147;-90
2023/07/10 04:51:48;;;;;;;7.22;4.65;;;;;;;24.46;60.51;100014.00;4321464;33;26917;-90
2023/07/10 04:54:13;;;;;;;7.28;4.18;;;;;;;24.64;60.52;100007.09;4319854;33;20130;-90
2023/07/10 04:56:39;;;;;;;8.88;4.32;;;;;;;24.70;60.52;100006.56;4307629;33;20136;-89
2023/07/10 04:59:04;;;;;;;7.47;4.30;;;;;;;25.00;60.54;100011.03;4331322;33;20510;-90
2023/07/10 05:01:32;;;;;;;10.75;5.18;;;;;;;25.16;60.55;100007.03;4319043;33;20115;-89
2023/07/10 05:03:58;;;;;;;6.40;4.70;;;;;;;25.20;60.54;100013.78;4307267;33;20127;-89
2023/07/10 05:06:23;;;;;;;8.10;4.78;;;;;;;25.32;60.55;100016.22;4328937;33;20076;-89
2023/07/10 05:08:51;;;;;;;7.37;4.85;;;;;;;25.65;60.57;100019.47;4319151;33;20114;-89
2023/07/10 05:11:16;;;;;;;13.13;5.28;;;;;;;25.99;60.58;100019.94;4327532;33;20102;-90
2023/07/10 05:13:42;;;;;;;7.75;4.55;;;;;;;26.21;60.59;100016.97;4326273;33;20493;-90
2023/07/10 05:16:07;;;;;;;6.15;4.35;;;;;;;26.29;60.60;100022.44;4331604;33;20134;-91
2023/07/10 05:18:33;;;;;;;7.03;4.32;;;;;;;26.27;60.60;100023.56;4322950;33;20382;-90
2023/07/10 05:20:58;;;;;;;9.05;4.53;;;;;;;26.41;60.61;100016.97;4305976;33;20472;-90
2023/07/10 05:23:24;;;;;;;12.37;4.90;;;;;;;26.49;60.62;100020.59;4294524;33;20103;-90
2023/07/10 05:26:08;;;;;;;10.27;4.80;;;;;;;26.67;60.62;100009.16;4318834;33;20130;-90
2023/07/10 05:28:34;;;;;;;8.75;4.75;;;;;;;26.81;60.63;100014.03;4323711;33;20449;-90
2023/07/10 05:31:00;;;;;;;8.93;5.10;;;;;;;26.93;60.63;100008.34;4319124;33;20142;-90
2023/07/10 05:33:25;;;;;;;8.70;5.12;;;;;;;27.15;60.65;100012.50;4330626;33;20104;-90
2023/07/10 05:35:52;;;;;;;6.68;4.45;;;;;;;27.25;60.65;100008.94;4330748;33;20175;-91
2023/07/10 05:38:17;;;;;;;8.05;4.40;;;;;;;27.35;60.66;100015.06;4325278;33;20430;-90
2023/07/10 05:40:43;;;;;;;6.95;5.15;;;;;;;27.56;60.66;100017.47;4319103;33;20138;-90
2023/07/10 05:43:13;;;;;;;7.32;5.18;;;;;;;27.76;60.68;100017.22;4318659;33;20591;-89
2023/07/10 05:45:39;;;;;;;6.80;5.05;;;;;;;27.58;60.66;100021.66;4319027;33;20104;-91
2023/07/10 05:48:05;;;;;;;6.90;4.80;;;;;;;27.81;60.67;100014.06;4318702;33;20125;-91
2023/07/10 05:50:30;;;;;;;9.82;5.60;;;;;;;28.07;60.69;100019.47;4318575;33;20103;-91
2023/07/10 05:52:55;;;;;;;8.00;5.15;;;;;;;28.01;60.69;100023.63;4318351;33;20439;-91
2023/07/10 05:55:21;;;;;;;9.13;5.35;;;;;;;28.03;60.69;100018.09;4318364;33;20179;-90
2023/07/10 05:57:47;;;;;;;7.45;5.62;;;;;;;28.22;60.69;100009.06;4318688;33;20532;-89
2023/07/10 06:00:13;;;;;;;11.63;4.95;;;;;;;28.57;60.72;100013.50;4318657;33;20099;-91
2023/07/10 06:02:39;;;;;;;6.57;5.00;;;;;;;28.27;60.70;100020.16;4318827;33;20133;-91
2023/07/10 06:05:04;;;;;;;7.62;5.43;;;;;;;28.41;60.71;100015.09;4306093;33;20187;-91
2023/07/10 06:07:30;;;;;;;8.45;4.90;;;;;;;28.70;60.71;100016.59;4318524;33;20167;-89
2023/07/10 06:09:55;;;;;;;8.88;5.25;;;;;;;28.65;60.72;100014.41;4332168;33;20153;-89
2023/07/10 06:12:21;;;;;;;7.43;5.03;;;;;;;28.71;60.72;100008.41;4319145;33;20183;-90
2023/07/10 06:14:46;;;;;;;8.20;4.97;;;;;;;28.69;60.72;100006.91;4319831;33;20099;-90
2023/07/10 06:17:11;;;;;;;7.65;4.65;;;;;;;28.89;60.73;100004.84;4331594;33;20134;-89
2023/07/10 06:19:37;;;;;;;7.82;5.05;;;;;;;29.03;60.74;99999.72;4294047;33;20111;-90
2023/07/10 06:22:07;;;;;;;8.05;5.55;;;;;;;29.20;60.75;100008.66;4301756;33;20138;-90
2023/07/10 06:24:32;;;;;;;9.95;5.43;;;;;;;29.21;60.75;100001.44;4318508;33;20492;-89
2023/07/10 06:26:57;;;;;;;7.53;5.15;;;;;;;29.42;60.77;99996.50;4330241;33;26597;-90
2023/07/10 06:29:23;;;;;;;7.50;5.28;;;;;;;29.59;60.77;99998.25;4303413;33;23199;-89
2023/07/10 06:31:48;;;;;;;9.85;4.72;;;;;;;29.80;60.77;100004.94;4306137;33;20165;-89
2023/07/10 06:34:14;;;;;;;6.25;5.25;;;;;;;29.85;60.78;100003.47;4318402;33;20450;-90
2023/07/10 06:36:39;;;;;;;7.65;5.15;;;;;;;29.81;60.78;99995.88;4330695;33;20962;-90
2023/07/10 06:39:04;;;;;;;9.90;5.03;;;;;;;29.97;60.79;100000.44;4318031;33;20372;-90
2023/07/10 06:41:30;;;;;;;8.07;4.82;;;;;;;30.10;60.79;100003.50;4318208;33;20457;-89
2023/07/10 06:43:56;;;;;;;6.62;4.90;;;;;;;30.25;60.80;99996.41;4315808;33;20187;-90
2023/07/10 06:46:22;;;;;;;9.95;5.90;;;;;;;30.43;60.81;99990.84;4319389;33;20590;-90
2023/07/10 06:48:47;;;;;;;7.57;5.25;;;;;;;30.66;60.82;99988.31;4320498;33;20113;-90
2023/07/10 06:51:13;;;;;;;8.10;5.60;;;;;;;30.76;60.82;99991.66;4332752;33;20128;-89
2023/07/10 06:53:38;;;;;;;6.45;4.32;;;;;;;31.21;60.84;99987.44;4307808;33;20429;-90
2023/07/10 06:56:05;;;;;;;7.87;5.15;;;;;;;31.42;60.86;99979.59;4307622;33;27805;-90
2023/07/10 06:58:31;;;;;;;8.98;5.15;;;;;;;31.43;60.86;99982.09;4317887;33;20497;-89
2023/07/10 07:00:57;;;;;;;6.97;4.95;;;;;;;31.38;60.86;99987.19;4315478;33;20155;-89
2023/07/10 07:03:22;;;;;;;6.85;5.20;;;;;;;31.55;60.86;99985.22;4332352;33;20177;-89
2023/07/10 07:05:48;;;;;;;7.62;5.05;;;;;;;31.65;60.87;99991.19;4332394;33;20145;-90
2023/07/10 07:08:13;;;;;;;6.37;4.62;;;;;;;31.86;60.88;99982.50;4317638;33;20099;-89
2023/07/10 07:10:40;;;;;;;9.00;4.68;;;;;;;31.69;60.88;99983.59;4315353;33;20142;-89
2023/07/10 07:13:05;;;;;;;9.75;5.07;;;;;;;31.76;60.88;99984.59;4333642;33;20100;-89
2023/07/10 07:15:31;;;;;;;9.05;5.43;;;;;;;31.86;60.88;99982.50;4333412;33;20145;-90
2023/07/10 07:17:56;;;;;;;7.68;5.15;;;;;;;32.16;60.89;99975.31;4305575;33;20464;-87
2023/07/10 07:20:22;;;;;;;8.50;5.03;;;;;;;32.26;60.90;99977.81;4315322;33;20164;-87
2023/07/10 07:22:47;;;;;;;8.10;5.00;;;;;;;32.40;60.91;99970.75;4332334;33;20147;-87
2023/07/10 07:25:13;;;;;;;6.68;5.37;;;;;;;32.38;60.91;99972.78;4332643;33;20088;-88
2023/07/10 07:27:40;;;;;;;8.27;5.70;;;;;;;32.54;60.91;99975.31;4320383;33;20127;-88
2023/07/10 07:30:06;;;;;;;7.35;5.80;;;;;;;32.64;60.92;99976.69;4320357;33;20384;-87
2023/07/10 07:32:31;;;;;;;8.93;5.05;;;;;;;32.53;60.92;99977.19;4308332;33;20099;-88
2023/07/10 07:34:56;;;;;;;7.28;5.47;;;;;;;32.55;60.92;99968.91;4308192;33;20076;-87
2023/07/10 07:37:22;;;;;;;8.25;5.07;;;;;;;32.74;60.92;99978.28;4332526;33;21901;-87
2023/07/10 07:39:47;;;;;;;5.95;4.72;;;;;;;32.77;60.93;99973.38;4321294;33;20116;-87
2023/07/10 07:42:13;;;;;;;5.65;4.70;;;;;;;32.73;60.92;99972.06;4309426;33;20167;-87
2023/07/10 07:44:38;;;;;;;6.87;5.03;;;;;;;32.82;60.93;99968.28;4341371;33;20100;-87
2023/07/10 07:47:04;;;;;;;6.43;5.03;;;;;;;33.13;60.94;99969.91;4338496;33;20143;-87
2023/07/10 07:49:29;;;;;;;9.68;5.37;;;;;;;32.99;60.95;99971.59;4320198;33;20108;-87
2023/07/10 07:51:54;;;;;;;6.30;4.70;;;;;;;33.20;60.95;99974.34;4319327;33;28177;-87
2023/07/10 07:54:20;;;;;;;7.82;5.05;;;;;;;33.45;60.96;99974.03;4319587;33;20155;-87
2023/07/10 07:56:46;;;;;;;17.58;6.12;;;;;;;33.26;60.96;99968.19;4331452;33;20099;-87
2023/07/10 07:59:11;;;;;;;10.77;5.80;;;;;;;33.23;60.96;99968.56;4331953;33;20111;-88
2023/07/10 08:01:36;;;;;;;12.55;5.65;;;;;;;33.50;60.97;99960.78;4332097;33;20110;-87
2023/07/10 08:04:03;;;;;;;6.55;4.90;;;;;;;33.84;60.98;99960.97;4307703;33;20123;-87
2023/07/10 08:06:29;;;;;;;6.80;4.80;;;;;;;33.86;60.98;99961.59;4332054;33;20119;-87
2023/07/10 08:08:54;;;;;;;8.90;5.40;;;;;;;33.92;60.99;99949.16;4333387;33;20163;-88
2023/07/10 08:11:20;;;;;;;11.55;5.53;;;;;;;34.03;60.99;99955.91;4318660;33;20135;-87
2023/07/10 08:13:46;;;;;;;9.38;5.12;;;;;;;34.05;61.00;99949.25;4305111;33;20151;-88
2023/07/10 08:16:11;;;;;;;6.60;4.78;;;;;;;34.25;61.01;99956.69;4332103;33;20136;-88
2023/07/10 08:18:37;;;;;;;8.13;5.12;;;;;;;34.50;61.01;99952.50;4319771;33;20204;-88
2023/07/10 08:21:03;;;;;;;4.62;4.18;;;;;;;34.49;61.02;99950.84;4333302;33;20497;-88
2023/07/10 08:23:28;;;;;;;7.87;4.68;;;;;;;34.65;61.03;99941.56;4333134;33;20563;-88
2023/07/10 08:25:54;;;;;;;9.43;5.22;;;;;;;34.81;61.03;99937.72;4331793;33;20103;-88
2023/07/10 08:28:19;;;;;;;9.27;5.97;;;;;;;34.81;61.03;99940.41;4319335;33;20812;-89
2023/07/10 08:30:44;;;;;;;6.80;4.95;;;;;;;34.85;61.03;99936.28;4331903;33;20412;-88
2023/07/10 08:33:10;;;;;;;7.43;4.95;;;;;;;34.89;61.04;99927.56;4331685;33;21492;-86
2023/07/10 08:35:36;;;;;;;5.82;4.85;;;;;;;35.07;61.05;99930.56;4328797;33;20115;-85
2023/07/10 08:38:01;;;;;;;6.25;5.20;;;;;;;34.94;61.04;99930.50;4331949;33;20138;-86
2023/07/10 08:40:31;;;;;;;6.87;4.87;;;;;;;35.13;61.05;99922.66;4331321;33;26800;-86
2023/07/10 08:42:56;;;;;;;9.80;5.20;;;;;;;35.18;61.05;99917.47;4319554;33;20088;-86
2023/07/10 08:45:35;;;;;;;6.30;4.37;;;;;;;34.98;61.04;99920.09;4306945;33;33090;-86
2023/07/10 08:48:12;;;;;;;6.93;5.15;;;;;;;34.94;61.04;99935.91;4332107;33;20129;-86
2023/07/10 08:50:38;;;;;;;6.53;5.22;;;;;;;34.93;61.04;99922.59;4332131;33;20134;-86
2023/07/10 08:53:09;;;;;;;10.00;5.10;;;;;;;35.14;61.05;99925.16;4328602;33;20442;-88
2023/07/10 08:55:48;;;;;;;9.25;5.07;;;;;;;35.32;61.05;99917.28;4319817;33;20096;-87
2023/07/10 08:58:17;;;;;;;11.02;5.25;;;;;;;35.29;61.05;99925.00;4327934;33;20135;-86
2023/07/10 09:00:43;;;;;;;6.47;5.07;;;;;;;35.24;61.05;99911.22;4320058;33;20183;-87
2023/07/10 09:03:41;;;;;;;6.68;5.00;;;;;;;35.46;61.07;99917.31;4307483;33;20154;-88
2023/07/10 09:06:21;;;;;;;7.53;5.00;;;;;;;35.77;61.08;99912.16;4317112;33;20107;-89
2023/07/10 09:08:52;;;;;;;6.32;4.90;;;;;;;35.87;61.08;99912.59;4320485;33;20108;-88
2023/07/10 09:11:17;;;;;;;7.80;5.20;;;;;;;35.95;61.08;99908.81;4329437;33;20125;-88
2023/07/10 09:13:54;;;;;;;6.22;5.12;;;;;;;36.20;61.10;99904.44;4327086;33;20727;-87
2023/07/10 09:16:20;;;;;;;11.40;5.12;;;;;;;36.33;61.11;99908.19;4310361;33;20249;-88
2023/07/10 09:18:54;;;;;;;6.43;4.78;;;;;;;36.38;61.10;99902.94;4307372;33;20607;-88
2023/07/10 09:21:22;;;;;;;7.72;5.40;;;;;;;36.39;61.11;99907.31;4307518;33;20115;-89
2023/07/10 09:23:47;;;;;;;6.75;4.82;;;;;;;36.62;61.13;99901.41;4307235;33;20079;-88
2023/07/10 09:26:15;;;;;;;8.82;5.57;;;;;;;36.51;61.11;99894.78;4316971;33;20194;-89
2023/07/10 09:28:43;;;;;;;8.10;5.70;;;;;;;36.32;61.11;99901.94;4307079;33;20127;-88
2023/07/10 09:31:08;;;;;;;7.25;5.10;;;;;;;36.38;61.10;99902.94;4319065;33;20110;-90
2023/07/10 09:33:42;;;;;;;5.65;5.05;;;;;;;36.46;61.11;99891.88;4332441;33;20150;-89
2023/07/10 09:36:13;;;;;;;6.55;5.65;;;;;;;36.49;61.12;99891.44;4320233;33;20131;-89
2023/07/10 09:38:38;;;;;;;5.40;4.28;;;;;;;36.49;61.12;99888.75;4321184;33;20104;-90
2023/07/10 09:41:10;;;;;;;7.82;5.22;;;;;;;36.58;61.12;99887.44;4312413;33;20115;-88
2023/07/10 09:43:36;;;;;;;8.50;4.90;;;;;;;36.58;61.12;99879.31;4316919;33;20099;-89
2023/07/10 09:46:02;;;;;;;7.97;5.47;;;;;;;36.47;61.12;99891.66;4319454;33;20727;-89
2023/07/10 09:48:35;;;;;;;9.85;4.97;;;;;;;36.51;61.12;99884.78;4333387;33;20162;-89
2023/07/10 09:51:05;;;;;;;9.68;4.62;;;;;;;36.64;61.13;99883.88;4319211;33;20107;-91
2023/07/10 09:53:33;;;;;;;5.65;4.85;;;;;;;36.75;61.13;99875.06;4319145;33;20096;-91
2023/07/10 09:55:59;;;;;;;5.07;4.53;;;;;;;37.00;61.14;99877.06;4319187;33;20179;-91
2023/07/10 09:58:24;;;;;;;5.00;4.25;;;;;;;36.84;61.13;99878.37;4316319;33;20458;-88
2023/07/10 10:00:51;;;;;;;7.45;4.72;;;;;;;36.61;61.12;99876.16;4314843;33;20100;-89
2023/07/10 10:03:31;;;;;;;6.57;4.32;;;;;;;36.64;61.13;99872.19;4317607;33;20087;-89
2023/07/10 10:05:57;;;;;;;5.47;4.62;;;;;;;36.75;61.13;99869.66;4306642;33;20112;-89
2023/07/10 10:08:25;;;;;;;5.15;4.32;;;;;;;36.80;61.14;99859.00;4331239;33;20155;-91
2023/07/10 10:11:05;;;;;;;7.12;5.00;;;;;;;37.08;61.14;99864.06;4318860;33;20112;-90
2023/07/10 10:13:37;;;;;;;6.07;4.45;;;;;;;36.94;61.15;99862.50;4318781;33;20161;-90
2023/07/10 10:16:24;;;;;;;7.90;5.25;;;;;;;36.64;61.12;99864.06;4303763;33;20212;-89
2023/07/10 10:19:15;;;;;;;6.80;4.60;;;;;;;36.68;61.13;99858.00;4308594;33;20191;-90
2023/07/10 10:21:40;;;;;;;6.28;4.78;;;;;;;36.63;61.13;99848.81;4333986;33;20072;-90
2023/07/10 10:24:09;;;;;;;7.12;5.25;;;;;;;36.46;61.12;99854.75;4320530;33;20115;-89
2023/07/10 10:26:38;;;;;;;7.45;4.78;;;;;;;36.57;61.13;99847.81;4320842;33;20087;-90
2023/07/10 10:29:13;;;;;;;5.43;4.72;;;;;;;36.60;61.12;99850.09;4308344;33;20820;-89
2023/07/10 10:31:40;;;;;;;6.10;4.25;;;;;;;36.71;61.13;99835.88;4334546;33;20116;-89
2023/07/10 10:34:24;;;;;;;6.70;4.90;;;;;;;36.79;61.14;99832.91;4333815;33;20159;-89
2023/07/10 10:37:23;;;;;;;6.18;4.80;;;;;;;36.99;61.14;99837.41;4321777;33;20539;-90
2023/07/10 10:39:58;;;;;;;5.72;4.82;;;;;;;36.78;61.13;99830.41;4323084;33;20465;-89
2023/07/10 10:42:32;;;;;;;8.45;4.95;;;;;;;37.06;61.15;99836.28;4319255;33;20102;-90
2023/07/10 10:44:57;;;;;;;7.53;5.30;;;;;;;37.14;61.15;99830.59;4313752;33;20125;-90
2023/07/10 10:47:39;;;;;;;9.60;4.90;;;;;;;37.34;61.16;99826.94;4334464;33;20088;-90
2023/07/10 10:50:18;;;;;;;8.00;5.65;;;;;;;37.21;61.16;99843.31;4308522;33;20185;-90
2023/07/10 10:52:58;;;;;;;5.95;4.57;;;;;;;37.22;61.15;99834.94;4318100;33;20133;-91
2023/07/10 10:55:36;;;;;;;7.87;4.68;;;;;;;37.25;61.15;99834.53;4311732;33;20092;-90
2023/07/10 10:58:06;;;;;;;5.15;4.40;;;;;;;37.19;61.16;99833.50;4320166;33;20397;-91
2023/07/10 11:01:03;;;;;;;8.40;4.55;;;;;;;37.21;61.16;99832.44;4320428;33;20170;-92
2023/07/10 11:04:02;;;;;;;6.22;4.80;;;;;;;37.70;61.18;99827.03;4324950;33;20092;-90
2023/07/10 11:06:59;;;;;;;7.30;4.95;;;;;;;37.89;61.19;99814.34;4306993;33;20466;-91
2023/07/10 11:09:30;;;;;;;7.82;5.32;;;;;;;37.77;61.19;99821.56;4320105;33;20449;-89
2023/07/10 11:11:57;;;;;;;8.05;5.45;;;;;;;37.68;61.18;99821.00;4332388;33;20137;-89
2023/07/10 11:14:22;;;;;;;6.87;5.05;;;;;;;37.87;61.19;99818.34;4332405;33;20456;-90
2023/07/10 11:16:48;;;;;;;10.70;4.80;;;;;;;37.99;61.19;99817.37;4308063;33;20160;-91
2023/07/10 11:19:20;;;;;;;5.90;5.10;;;;;;;37.95;61.19;99818.03;4308032;33;20155;-90
2023/07/10 11:21:45;;;;;;;7.30;4.60;;;;;;;38.15;61.20;99813.22;4320295;33;20528;-90
2023/07/10 11:24:36;;;;;;;5.00;4.50;;;;;;;38.38;61.21;99807.12;4317598;33;20149;-89
2023/07/10 11:27:13;;;;;;;5.20;4.70;;;;;;;38.53;61.22;99796.66;4317181;33;20480;-90
2023/07/10 11:29:42;;;;;;;7.45;4.57;;;;;;;38.50;61.22;99801.72;4320278;33;20099;-90
2023/07/10 11:32:13;;;;;;;4.70;4.30;;;;;;;38.41;61.22;99803.94;4332623;33;20135;-91